sensor_id;sensor_type;location;lat;lon;timestamp;P1;durP1;ratioP1;P2;durP2;ratioP2
75628;SDS011;64213;46.452;16.994;2024-03-23T00:54:34;23.15;;;9.23;;
75628;SDS011;64213;46.452;16.994;2024-03-23T00:57:35;21.50;;;9.07;;
75628;SDS011;64213;46.452;16.994;2024-03-23T01:00:36;22.52;;;8.63;;
75628;SDS011;64213;46.452;16.994;2024-03-23T01:03:38;22.90;;;9.30;;
75628;SDS011;64213;46.452;16.994;2024-03-23T01:06:39;22.43;;;8.97;;
75628;SDS011;64213;46.452;16.994;2024-03-23T01:09:40;22.15;;;9.30;;
75628;SDS011;64213;46.452;16.994;2024-03-23T01:12:42;22.73;;;9.57;;
75628;SDS011;64213;46.452;16.994;2024-03-23T01:15:47;20.55;;;8.07;;
75628;SDS011;64213;46.452;16.994;2024-03-23T01:18:49;20.93;;;9.60;;
75628;SDS011;64213;46.452;16.994;2024-03-23T01:21:51;20.67;;;9.77;;
75628;SDS011;64213;46.452;16.994;2024-03-23T01:24:52;20.58;;;10.02;;
75628;SDS011;64213;46.452;16.994;2024-03-23T01:27:53;22.33;;;10.25;;
75628;SDS011;64213;46.452;16.994;2024-03-23T01:30:54;23.10;;;9.45;;
75628;SDS011;64213;46.452;16.994;2024-03-23T01:33:55;23.00;;;9.37;;
75628;SDS011;64213;46.452;16.994;2024-03-23T01:36:56;19.13;;;8.50;;
75628;SDS011;64213;46.452;16.994;2024-03-23T01:40:00;25.37;;;10.02;;
75628;SDS011;64213;46.452;16.994;2024-03-23T01:43:03;21.83;;;9.40;;
75628;SDS011;64213;46.452;16.994;2024-03-23T01:46:06;26.12;;;9.85;;
75628;SDS011;64213;46.452;16.994;2024-03-23T01:49:08;23.43;;;11.10;;
75628;SDS011;64213;46.452;16.994;2024-03-23T01:52:10;20.73;;;8.37;;
75628;SDS011;64213;46.452;16.994;2024-03-23T01:55:11;20.52;;;9.57;;
75628;SDS011;64213;46.452;16.994;2024-03-23T01:58:13;21.42;;;10.70;;
75628;SDS011;64213;46.452;16.994;2024-03-23T02:01:14;19.48;;;7.82;;
75628;SDS011;64213;46.452;16.994;2024-03-23T02:04:15;20.03;;;9.23;;
75628;SDS011;64213;46.452;16.994;2024-03-23T02:07:17;23.10;;;9.67;;
75628;SDS011;64213;46.452;16.994;2024-03-23T02:10:18;21.20;;;9.70;;
75628;SDS011;64213;46.452;16.994;2024-03-23T02:13:19;20.10;;;8.93;;
75628;SDS011;64213;46.452;16.994;2024-03-23T02:16:21;19.25;;;9.05;;
75628;SDS011;64213;46.452;16.994;2024-03-23T02:23:21;20.43;;;8.73;;
75628;SDS011;64213;46.452;16.994;2024-03-23T02:26:22;22.85;;;9.52;;
75628;SDS011;64213;46.452;16.994;2024-03-23T02:29:23;18.85;;;9.13;;
75628;SDS011;64213;46.452;16.994;2024-03-23T02:32:25;19.60;;;8.95;;
75628;SDS011;64213;46.452;16.994;2024-03-23T02:35:26;18.70;;;8.47;;
75628;SDS011;64213;46.452;16.994;2024-03-23T02:38:28;19.33;;;8.97;;
75628;SDS011;64213;46.452;16.994;2024-03-23T02:41:29;19.33;;;9.00;;
75628;SDS011;64213;46.452;16.994;2024-03-23T02:44:30;19.08;;;8.63;;
75628;SDS011;64213;46.452;16.994;2024-03-23T02:47:32;20.85;;;8.77;;
75628;SDS011;64213;46.452;16.994;2024-03-23T02:50:33;18.67;;;8.40;;
75628;SDS011;64213;46.452;16.994;2024-03-23T02:53:35;19.43;;;7.90;;
75628;SDS011;64213;46.452;16.994;2024-03-23T02:56:36;18.48;;;8.27;;
75628;SDS011;64213;46.452;16.994;2024-03-23T02:59:38;18.12;;;8.57;;
75628;SDS011;64213;46.452;16.994;2024-03-23T03:02:39;17.92;;;8.27;;
75628;SDS011;64213;46.452;16.994;2024-03-23T03:05:40;18.13;;;8.47;;
75628;SDS011;64213;46.452;16.994;2024-03-23T03:08:42;18.27;;;8.53;;
75628;SDS011;64213;46.452;16.994;2024-03-23T03:11:43;20.15;;;8.25;;
75628;SDS011;64213;46.452;16.994;2024-03-23T03:14:44;17.00;;;8.02;;
75628;SDS011;64213;46.452;16.994;2024-03-23T03:17:45;19.17;;;8.45;;
75628;SDS011;64213;46.452;16.994;2024-03-23T03:20:46;17.57;;;7.63;;
75628;SDS011;64213;46.452;16.994;2024-03-23T03:23:48;17.70;;;8.17;;
75628;SDS011;64213;46.452;16.994;2024-03-23T03:26:51;15.27;;;6.82;;
75628;SDS011;64213;46.452;16.994;2024-03-23T03:29:52;14.65;;;6.12;;
75628;SDS011;64213;46.452;16.994;2024-03-23T03:32:53;16.92;;;7.68;;
75628;SDS011;64213;46.452;16.994;2024-03-23T03:35:55;14.93;;;6.73;;
75628;SDS011;64213;46.452;16.994;2024-03-23T03:38:57;14.63;;;5.93;;
75628;SDS011;64213;46.452;16.994;2024-03-23T03:41:58;17.48;;;7.53;;
75628;SDS011;64213;46.452;16.994;2024-03-23T03:45:01;14.40;;;6.45;;
75628;SDS011;64213;46.452;16.994;2024-03-23T03:48:02;16.27;;;6.15;;
75628;SDS011;64213;46.452;16.994;2024-03-23T03:51:04;15.77;;;7.50;;
75628;SDS011;64213;46.452;16.994;2024-03-23T03:54:05;17.53;;;7.03;;
75628;SDS011;64213;46.452;16.994;2024-03-23T03:57:07;17.58;;;7.75;;
75628;SDS011;64213;46.452;16.994;2024-03-23T04:00:08;18.67;;;8.05;;
75628;SDS011;64213;46.452;16.994;2024-03-23T04:03:13;17.98;;;8.10;;
75628;SDS011;64213;46.452;16.994;2024-03-23T04:06:21;17.47;;;7.87;;
75628;SDS011;64213;46.452;16.994;2024-03-23T04:09:22;16.43;;;7.40;;
75628;SDS011;64213;46.452;16.994;2024-03-23T04:12:24;18.30;;;8.07;;
75628;SDS011;64213;46.452;16.994;2024-03-23T04:15:25;17.35;;;8.00;;
75628;SDS011;64213;46.452;16.994;2024-03-23T04:18:26;18.48;;;8.13;;
75628;SDS011;64213;46.452;16.994;2024-03-23T04:21:28;17.23;;;6.60;;
75628;SDS011;64213;46.452;16.994;2024-03-23T04:24:29;17.23;;;5.40;;
75628;SDS011;64213;46.452;16.994;2024-03-23T04:27:30;18.60;;;8.43;;
75628;SDS011;64213;46.452;16.994;2024-03-23T04:30:31;20.23;;;9.10;;
75628;SDS011;64213;46.452;16.994;2024-03-23T04:33:33;23.33;;;8.48;;
75628;SDS011;64213;46.452;16.994;2024-03-23T04:36:34;17.43;;;7.07;;
75628;SDS011;64213;46.452;16.994;2024-03-23T04:43:45;17.00;;;7.87;;
75628;SDS011;64213;46.452;16.994;2024-03-23T04:46:47;18.12;;;7.82;;
75628;SDS011;64213;46.452;16.994;2024-03-23T04:49:48;14.35;;;5.97;;
75628;SDS011;64213;46.452;16.994;2024-03-23T04:52:50;18.43;;;7.27;;
75628;SDS011;64213;46.452;16.994;2024-03-23T04:55:51;17.47;;;7.53;;
75628;SDS011;64213;46.452;16.994;2024-03-23T04:58:52;18.50;;;8.20;;
75628;SDS011;64213;46.452;16.994;2024-03-23T05:01:53;19.58;;;8.70;;
75628;SDS011;64213;46.452;16.994;2024-03-23T05:04:55;19.45;;;8.93;;
75628;SDS011;64213;46.452;16.994;2024-03-23T05:07:56;22.70;;;9.07;;
75628;SDS011;64213;46.452;16.994;2024-03-23T05:10:57;16.97;;;8.27;;
75628;SDS011;64213;46.452;16.994;2024-03-23T05:13:59;17.40;;;8.10;;
75628;SDS011;64213;46.452;16.994;2024-03-23T05:17:01;16.42;;;7.70;;
75628;SDS011;64213;46.452;16.994;2024-03-23T05:20:04;18.27;;;8.25;;
75628;SDS011;64213;46.452;16.994;2024-03-23T05:23:10;20.07;;;9.23;;
75628;SDS011;64213;46.452;16.994;2024-03-23T05:26:11;20.03;;;9.17;;
75628;SDS011;64213;46.452;16.994;2024-03-23T05:29:12;17.05;;;8.23;;
75628;SDS011;64213;46.452;16.994;2024-03-23T05:32:14;16.35;;;7.12;;
75628;SDS011;64213;46.452;16.994;2024-03-23T05:35:15;17.00;;;7.12;;
75628;SDS011;64213;46.452;16.994;2024-03-23T05:38:16;19.20;;;8.40;;
75628;SDS011;64213;46.452;16.994;2024-03-23T05:41:17;17.20;;;8.17;;
75628;SDS011;64213;46.452;16.994;2024-03-23T05:44:19;15.15;;;6.65;;
75628;SDS011;64213;46.452;16.994;2024-03-23T05:47:20;17.00;;;7.60;;
75628;SDS011;64213;46.452;16.994;2024-03-23T05:50:22;20.62;;;8.07;;
75628;SDS011;64213;46.452;16.994;2024-03-23T05:53:24;15.53;;;7.40;;
75628;SDS011;64213;46.452;16.994;2024-03-23T05:56:25;16.17;;;7.40;;
75628;SDS011;64213;46.452;16.994;2024-03-23T05:59:27;19.40;;;8.63;;
75628;SDS011;64213;46.452;16.994;2024-03-23T06:02:29;16.45;;;7.53;;
75628;SDS011;64213;46.452;16.994;2024-03-23T06:05:30;13.98;;;6.12;;
75628;SDS011;64213;46.452;16.994;2024-03-23T06:08:31;18.07;;;7.27;;
75628;SDS011;64213;46.452;16.994;2024-03-23T06:11:33;18.63;;;7.80;;
75628;SDS011;64213;46.452;16.994;2024-03-23T06:14:34;16.55;;;7.87;;
75628;SDS011;64213;46.452;16.994;2024-03-23T06:17:36;15.60;;;7.07;;
75628;SDS011;64213;46.452;16.994;2024-03-23T06:20:38;16.30;;;7.20;;
75628;SDS011;64213;46.452;16.994;2024-03-23T06:23:40;14.63;;;7.00;;
75628;SDS011;64213;46.452;16.994;2024-03-23T06:26:43;16.37;;;5.20;;
75628;SDS011;64213;46.452;16.994;2024-03-23T06:29:44;15.75;;;6.45;;
75628;SDS011;64213;46.452;16.994;2024-03-23T06:32:46;17.42;;;7.18;;
75628;SDS011;64213;46.452;16.994;2024-03-23T06:35:51;14.13;;;7.30;;
75628;SDS011;64213;46.452;16.994;2024-03-23T06:38:53;16.17;;;7.60;;
75628;SDS011;64213;46.452;16.994;2024-03-23T06:41:55;12.77;;;5.50;;
75628;SDS011;64213;46.452;16.994;2024-03-23T06:44:57;14.25;;;6.30;;
75628;SDS011;64213;46.452;16.994;2024-03-23T06:47:58;15.88;;;6.00;;
75628;SDS011;64213;46.452;16.994;2024-03-23T06:50:59;15.45;;;6.80;;
75628;SDS011;64213;46.452;16.994;2024-03-23T06:54:02;14.10;;;6.07;;
75628;SDS011;64213;46.452;16.994;2024-03-23T06:57:04;14.40;;;6.93;;
75628;SDS011;64213;46.452;16.994;2024-03-23T07:00:06;15.32;;;6.35;;
75628;SDS011;64213;46.452;16.994;2024-03-23T07:03:10;15.25;;;7.25;;
75628;SDS011;64213;46.452;16.994;2024-03-23T07:06:12;14.98;;;5.68;;
75628;SDS011;64213;46.452;16.994;2024-03-23T07:09:13;12.70;;;5.53;;
75628;SDS011;64213;46.452;16.994;2024-03-23T07:12:14;13.03;;;5.87;;
75628;SDS011;64213;46.452;16.994;2024-03-23T07:15:15;11.25;;;4.75;;
75628;SDS011;64213;46.452;16.994;2024-03-23T07:18:17;15.00;;;5.72;;
75628;SDS011;64213;46.452;16.994;2024-03-23T07:21:18;12.90;;;6.07;;
75628;SDS011;64213;46.452;16.994;2024-03-23T07:24:19;14.07;;;5.47;;
75628;SDS011;64213;46.452;16.994;2024-03-23T07:27:21;12.57;;;5.00;;
75628;SDS011;64213;46.452;16.994;2024-03-23T07:30:22;10.18;;;3.95;;
75628;SDS011;64213;46.452;16.994;2024-03-23T07:33:23;12.40;;;5.25;;
75628;SDS011;64213;46.452;16.994;2024-03-23T07:36:24;10.75;;;4.15;;
75628;SDS011;64213;46.452;16.994;2024-03-23T07:39:26;11.35;;;5.00;;
75628;SDS011;64213;46.452;16.994;2024-03-23T07:42:29;13.10;;;5.03;;
75628;SDS011;64213;46.452;16.994;2024-03-23T07:45:30;13.05;;;6.18;;
75628;SDS011;64213;46.452;16.994;2024-03-23T07:48:31;11.32;;;4.22;;
75628;SDS011;64213;46.452;16.994;2024-03-23T07:51:33;14.05;;;5.32;;
75628;SDS011;64213;46.452;16.994;2024-03-23T07:54:35;14.65;;;5.60;;
75628;SDS011;64213;46.452;16.994;2024-03-23T07:57:37;15.17;;;6.00;;
75628;SDS011;64213;46.452;16.994;2024-03-23T08:00:38;12.55;;;5.70;;
75628;SDS011;64213;46.452;16.994;2024-03-23T08:03:40;12.45;;;5.93;;
75628;SDS011;64213;46.452;16.994;2024-03-23T08:06:43;11.95;;;5.35;;
75628;SDS011;64213;46.452;16.994;2024-03-23T08:09:44;12.18;;;4.28;;
75628;SDS011;64213;46.452;16.994;2024-03-23T08:12:45;11.33;;;4.87;;
75628;SDS011;64213;46.452;16.994;2024-03-23T08:15:47;13.40;;;5.50;;
75628;SDS011;64213;46.452;16.994;2024-03-23T08:18:50;12.95;;;5.50;;
75628;SDS011;64213;46.452;16.994;2024-03-23T08:21:52;11.73;;;5.18;;
75628;SDS011;64213;46.452;16.994;2024-03-23T08:24:55;9.63;;;3.92;;
75628;SDS011;64213;46.452;16.994;2024-03-23T08:27:56;12.83;;;5.93;;
75628;SDS011;64213;46.452;16.994;2024-03-23T08:31:00;12.48;;;5.28;;
75628;SDS011;64213;46.452;16.994;2024-03-23T08:34:08;11.57;;;4.70;;
75628;SDS011;64213;46.452;16.994;2024-03-23T08:37:09;13.07;;;5.25;;
75628;SDS011;64213;46.452;16.994;2024-03-23T08:40:10;9.93;;;4.10;;
75628;SDS011;64213;46.452;16.994;2024-03-23T08:43:12;13.43;;;4.97;;
75628;SDS011;64213;46.452;16.994;2024-03-23T08:46:14;11.90;;;5.80;;
75628;SDS011;64213;46.452;16.994;2024-03-23T08:49:18;13.50;;;5.40;;
75628;SDS011;64213;46.452;16.994;2024-03-23T08:52:19;13.07;;;5.55;;
75628;SDS011;64213;46.452;16.994;2024-03-23T08:55:20;11.68;;;4.80;;
75628;SDS011;64213;46.452;16.994;2024-03-23T08:58:21;12.03;;;5.17;;
75628;SDS011;64213;46.452;16.994;2024-03-23T09:01:24;11.60;;;4.28;;
75628;SDS011;64213;46.452;16.994;2024-03-23T09:04:26;13.45;;;6.12;;
75628;SDS011;64213;46.452;16.994;2024-03-23T09:07:27;10.80;;;5.07;;
75628;SDS011;64213;46.452;16.994;2024-03-23T09:10:29;12.35;;;5.62;;
75628;SDS011;64213;46.452;16.994;2024-03-23T09:13:32;13.10;;;5.70;;
75628;SDS011;64213;46.452;16.994;2024-03-23T09:16:34;9.63;;;3.95;;
75628;SDS011;64213;46.452;16.994;2024-03-23T09:19:36;14.35;;;5.15;;
75628;SDS011;64213;46.452;16.994;2024-03-23T09:22:37;9.80;;;4.40;;
75628;SDS011;64213;46.452;16.994;2024-03-23T09:25:38;9.48;;;4.12;;
75628;SDS011;64213;46.452;16.994;2024-03-23T09:28:40;12.67;;;4.50;;
75628;SDS011;64213;46.452;16.994;2024-03-23T09:31:42;10.38;;;4.18;;
75628;SDS011;64213;46.452;16.994;2024-03-23T09:34:43;12.32;;;3.87;;
75628;SDS011;64213;46.452;16.994;2024-03-23T09:37:45;10.35;;;4.20;;
75628;SDS011;64213;46.452;16.994;2024-03-23T09:40:46;10.35;;;4.30;;
75628;SDS011;64213;46.452;16.994;2024-03-23T09:43:54;10.07;;;4.30;;
75628;SDS011;64213;46.452;16.994;2024-03-23T09:46:55;8.82;;;3.45;;
75628;SDS011;64213;46.452;16.994;2024-03-23T09:49:57;9.18;;;3.70;;
75628;SDS011;64213;46.452;16.994;2024-03-23T09:52:58;10.30;;;4.18;;
75628;SDS011;64213;46.452;16.994;2024-03-23T09:55:59;11.07;;;3.67;;
75628;SDS011;64213;46.452;16.994;2024-03-23T09:59:01;10.43;;;4.20;;
75628;SDS011;64213;46.452;16.994;2024-03-23T10:02:03;9.48;;;4.03;;
75628;SDS011;64213;46.452;16.994;2024-03-23T10:05:17;11.35;;;4.18;;
75628;SDS011;64213;46.452;16.994;2024-03-23T10:08:22;8.73;;;3.40;;
75628;SDS011;64213;46.452;16.994;2024-03-23T10:11:24;10.27;;;3.58;;
75628;SDS011;64213;46.452;16.994;2024-03-23T10:14:29;9.37;;;3.53;;
75628;SDS011;64213;46.452;16.994;2024-03-23T10:17:31;7.03;;;2.72;;
75628;SDS011;64213;46.452;16.994;2024-03-23T10:20:32;10.25;;;3.65;;
75628;SDS011;64213;46.452;16.994;2024-03-23T10:23:34;11.10;;;3.80;;
75628;SDS011;64213;46.452;16.994;2024-03-23T10:26:36;9.90;;;3.70;;
75628;SDS011;64213;46.452;16.994;2024-03-23T10:29:37;8.57;;;3.00;;
75628;SDS011;64213;46.452;16.994;2024-03-23T10:32:39;9.07;;;3.30;;
75628;SDS011;64213;46.452;16.994;2024-03-23T10:35:40;11.20;;;3.58;;
75628;SDS011;64213;46.452;16.994;2024-03-23T10:38:42;9.40;;;3.47;;
75628;SDS011;64213;46.452;16.994;2024-03-23T10:41:44;10.80;;;3.85;;
75628;SDS011;64213;46.452;16.994;2024-03-23T10:44:46;9.50;;;3.50;;
75628;SDS011;64213;46.452;16.994;2024-03-23T10:47:49;7.93;;;2.80;;
75628;SDS011;64213;46.452;16.994;2024-03-23T10:50:52;10.60;;;3.20;;
75628;SDS011;64213;46.452;16.994;2024-03-23T10:53:54;7.60;;;2.83;;
75628;SDS011;64213;46.452;16.994;2024-03-23T10:57:01;9.10;;;3.83;;
75628;SDS011;64213;46.452;16.994;2024-03-23T11:00:03;10.07;;;3.43;;
75628;SDS011;64213;46.452;16.994;2024-03-23T11:06:35;9.15;;;3.40;;
75628;SDS011;64213;46.452;16.994;2024-03-23T11:09:38;10.40;;;3.12;;
75628;SDS011;64213;46.452;16.994;2024-03-23T11:12:40;9.18;;;3.20;;
75628;SDS011;64213;46.452;16.994;2024-03-23T11:15:41;7.03;;;2.37;;
75628;SDS011;64213;46.452;16.994;2024-03-23T11:18:42;8.00;;;2.00;;
75628;SDS011;64213;46.452;16.994;2024-03-23T11:21:52;6.40;;;1.67;;
75628;SDS011;64213;46.452;16.994;2024-03-23T11:24:55;9.00;;;1.90;;
75628;SDS011;64213;46.452;16.994;2024-03-23T11:27:57;6.45;;;1.58;;
75628;SDS011;64213;46.452;16.994;2024-03-23T11:31:18;6.00;;;1.93;;
75628;SDS011;64213;46.452;16.994;2024-03-23T11:34:21;5.78;;;1.48;;
75628;SDS011;64213;46.452;16.994;2024-03-23T11:37:22;5.72;;;1.50;;
75628;SDS011;64213;46.452;16.994;2024-03-23T11:40:24;5.97;;;1.60;;
75628;SDS011;64213;46.452;16.994;2024-03-23T11:43:25;5.90;;;1.35;;
75628;SDS011;64213;46.452;16.994;2024-03-23T11:46:26;5.50;;;1.20;;
75628;SDS011;64213;46.452;16.994;2024-03-23T11:49:28;6.60;;;1.42;;
75628;SDS011;64213;46.452;16.994;2024-03-23T11:52:30;6.25;;;1.42;;
75628;SDS011;64213;46.452;16.994;2024-03-23T11:55:53;6.20;;;1.35;;
75628;SDS011;64213;46.452;16.994;2024-03-23T11:58:55;5.60;;;1.48;;
75628;SDS011;64213;46.452;16.994;2024-03-23T12:01:56;5.93;;;1.40;;
75628;SDS011;64213;46.452;16.994;2024-03-23T12:04:58;7.07;;;1.40;;
75628;SDS011;64213;46.452;16.994;2024-03-23T12:08:15;7.00;;;1.60;;
75628;SDS011;64213;46.452;16.994;2024-03-23T12:11:29;5.80;;;1.50;;
75628;SDS011;64213;46.452;16.994;2024-03-23T12:14:31;5.53;;;1.45;;
75628;SDS011;64213;46.452;16.994;2024-03-23T12:17:32;7.03;;;2.10;;
75628;SDS011;64213;46.452;16.994;2024-03-23T12:20:33;8.70;;;2.72;;
75628;SDS011;64213;46.452;16.994;2024-03-23T12:23:35;7.12;;;2.50;;
75628;SDS011;64213;46.452;16.994;2024-03-23T12:26:37;11.07;;;2.17;;
75628;SDS011;64213;46.452;16.994;2024-03-23T12:29:41;8.75;;;2.55;;
75628;SDS011;64213;46.452;16.994;2024-03-23T12:32:44;6.40;;;2.13;;
75628;SDS011;64213;46.452;16.994;2024-03-23T12:35:46;9.20;;;2.10;;
75628;SDS011;64213;46.452;16.994;2024-03-23T12:38:47;6.57;;;1.65;;
75628;SDS011;64213;46.452;16.994;2024-03-23T12:41:49;6.10;;;1.77;;
75628;SDS011;64213;46.452;16.994;2024-03-23T12:44:51;8.05;;;1.80;;
75628;SDS011;64213;46.452;16.994;2024-03-23T12:47:53;5.97;;;1.37;;
75628;SDS011;64213;46.452;16.994;2024-03-23T12:50:54;9.73;;;2.50;;
75628;SDS011;64213;46.452;16.994;2024-03-23T12:53:56;6.07;;;1.80;;
75628;SDS011;64213;46.452;16.994;2024-03-23T12:56:57;7.68;;;1.70;;
75628;SDS011;64213;46.452;16.994;2024-03-23T12:59:59;6.30;;;1.80;;
75628;SDS011;64213;46.452;16.994;2024-03-23T13:03:01;5.63;;;1.67;;
75628;SDS011;64213;46.452;16.994;2024-03-23T13:06:02;7.57;;;1.62;;
75628;SDS011;64213;46.452;16.994;2024-03-23T13:09:08;8.88;;;2.22;;
75628;SDS011;64213;46.452;16.994;2024-03-23T13:12:09;6.03;;;1.83;;
75628;SDS011;64213;46.452;16.994;2024-03-23T13:15:12;7.18;;;1.80;;
75628;SDS011;64213;46.452;16.994;2024-03-23T13:18:17;6.17;;;1.90;;
75628;SDS011;64213;46.452;16.994;2024-03-23T13:21:18;5.85;;;1.70;;
75628;SDS011;64213;46.452;16.994;2024-03-23T13:24:23;6.90;;;1.70;;
75628;SDS011;64213;46.452;16.994;2024-03-23T13:27:31;7.45;;;2.08;;
75628;SDS011;64213;46.452;16.994;2024-03-23T13:30:32;7.67;;;2.13;;
75628;SDS011;64213;46.452;16.994;2024-03-23T13:33:33;6.65;;;1.83;;
75628;SDS011;64213;46.452;16.994;2024-03-23T13:36:35;6.05;;;1.80;;
75628;SDS011;64213;46.452;16.994;2024-03-23T13:39:36;6.60;;;1.75;;
75628;SDS011;64213;46.452;16.994;2024-03-23T13:42:38;6.15;;;1.62;;
75628;SDS011;64213;46.452;16.994;2024-03-23T13:45:39;6.80;;;1.80;;
75628;SDS011;64213;46.452;16.994;2024-03-23T13:48:40;6.40;;;1.90;;
75628;SDS011;64213;46.452;16.994;2024-03-23T13:51:43;5.60;;;1.80;;
75628;SDS011;64213;46.452;16.994;2024-03-23T13:54:47;10.90;;;1.75;;
75628;SDS011;64213;46.452;16.994;2024-03-23T13:57:49;6.55;;;1.83;;
75628;SDS011;64213;46.452;16.994;2024-03-23T14:00:51;7.83;;;1.50;;
75628;SDS011;64213;46.452;16.994;2024-03-23T14:03:53;6.68;;;1.45;;
75628;SDS011;64213;46.452;16.994;2024-03-23T14:06:57;5.85;;;1.73;;
75628;SDS011;64213;46.452;16.994;2024-03-23T14:10:02;7.53;;;1.83;;
75628;SDS011;64213;46.452;16.994;2024-03-23T14:13:04;8.90;;;2.37;;
75628;SDS011;64213;46.452;16.994;2024-03-23T14:16:05;7.13;;;2.07;;
75628;SDS011;64213;46.452;16.994;2024-03-23T14:19:06;7.00;;;1.98;;
75628;SDS011;64213;46.452;16.994;2024-03-23T14:22:08;6.72;;;2.20;;
75628;SDS011;64213;46.452;16.994;2024-03-23T14:25:09;6.53;;;2.22;;
75628;SDS011;64213;46.452;16.994;2024-03-23T14:28:11;7.18;;;2.30;;
75628;SDS011;64213;46.452;16.994;2024-03-23T14:31:15;8.10;;;2.27;;
75628;SDS011;64213;46.452;16.994;2024-03-23T14:34:17;8.25;;;2.03;;
75628;SDS011;64213;46.452;16.994;2024-03-23T14:37:19;6.07;;;1.92;;
75628;SDS011;64213;46.452;16.994;2024-03-23T14:40:20;8.48;;;2.40;;
75628;SDS011;64213;46.452;16.994;2024-03-23T14:43:23;7.87;;;2.30;;
75628;SDS011;64213;46.452;16.994;2024-03-23T14:46:24;6.33;;;2.00;;
75628;SDS011;64213;46.452;16.994;2024-03-23T14:49:25;6.18;;;1.75;;
75628;SDS011;64213;46.452;16.994;2024-03-23T14:52:27;7.10;;;2.53;;
75628;SDS011;64213;46.452;16.994;2024-03-23T14:55:28;5.93;;;1.60;;
75628;SDS011;64213;46.452;16.994;2024-03-23T14:58:29;7.05;;;2.28;;
75628;SDS011;64213;46.452;16.994;2024-03-23T15:01:31;7.10;;;1.93;;
75628;SDS011;64213;46.452;16.994;2024-03-23T15:04:32;8.27;;;2.20;;
75628;SDS011;64213;46.452;16.994;2024-03-23T15:07:37;10.05;;;2.20;;
75628;SDS011;64213;46.452;16.994;2024-03-23T15:10:41;7.95;;;2.50;;
75628;SDS011;64213;46.452;16.994;2024-03-23T15:13:42;7.37;;;2.30;;
75628;SDS011;64213;46.452;16.994;2024-03-23T15:16:44;7.17;;;2.10;;
75628;SDS011;64213;46.452;16.994;2024-03-23T15:19:45;6.70;;;2.00;;
75628;SDS011;64213;46.452;16.994;2024-03-23T15:22:46;8.27;;;2.40;;
75628;SDS011;64213;46.452;16.994;2024-03-23T15:26:06;6.90;;;1.85;;
75628;SDS011;64213;46.452;16.994;2024-03-23T15:29:08;8.85;;;2.20;;
75628;SDS011;64213;46.452;16.994;2024-03-23T15:32:16;8.10;;;2.10;;
75628;SDS011;64213;46.452;16.994;2024-03-23T15:35:18;6.70;;;2.30;;
75628;SDS011;64213;46.452;16.994;2024-03-23T15:38:24;6.68;;;2.28;;
75628;SDS011;64213;46.452;16.994;2024-03-23T15:41:25;7.40;;;2.10;;
75628;SDS011;64213;46.452;16.994;2024-03-23T15:44:26;9.55;;;2.50;;
75628;SDS011;64213;46.452;16.994;2024-03-23T15:47:28;6.30;;;1.90;;
75628;SDS011;64213;46.452;16.994;2024-03-23T15:50:29;6.60;;;2.10;;
75628;SDS011;64213;46.452;16.994;2024-03-23T15:53:31;9.10;;;2.40;;
75628;SDS011;64213;46.452;16.994;2024-03-23T15:56:32;7.10;;;2.22;;
75628;SDS011;64213;46.452;16.994;2024-03-23T15:59:33;7.03;;;2.42;;
75628;SDS011;64213;46.452;16.994;2024-03-23T16:02:36;7.07;;;2.13;;
75628;SDS011;64213;46.452;16.994;2024-03-23T16:05:38;8.00;;;2.55;;
75628;SDS011;64213;46.452;16.994;2024-03-23T16:08:39;7.32;;;2.30;;
75628;SDS011;64213;46.452;16.994;2024-03-23T16:11:40;8.25;;;2.28;;
75628;SDS011;64213;46.452;16.994;2024-03-23T16:14:42;7.80;;;2.25;;
75628;SDS011;64213;46.452;16.994;2024-03-23T16:17:43;7.17;;;2.23;;
75628;SDS011;64213;46.452;16.994;2024-03-23T16:20:51;8.90;;;2.60;;
75628;SDS011;64213;46.452;16.994;2024-03-23T16:23:58;6.62;;;1.85;;
75628;SDS011;64213;46.452;16.994;2024-03-23T16:27:00;7.07;;;2.28;;
75628;SDS011;64213;46.452;16.994;2024-03-23T16:30:01;9.85;;;2.80;;
75628;SDS011;64213;46.452;16.994;2024-03-23T16:33:03;7.83;;;2.40;;
75628;SDS011;64213;46.452;16.994;2024-03-23T16:36:05;8.52;;;2.80;;
75628;SDS011;64213;46.452;16.994;2024-03-23T16:39:07;7.40;;;2.37;;
75628;SDS011;64213;46.452;16.994;2024-03-23T16:42:09;6.68;;;2.40;;
75628;SDS011;64213;46.452;16.994;2024-03-23T16:45:11;9.05;;;2.45;;
75628;SDS011;64213;46.452;16.994;2024-03-23T16:48:12;6.20;;;1.63;;
75628;SDS011;64213;46.452;16.994;2024-03-23T16:51:13;7.85;;;2.40;;
75628;SDS011;64213;46.452;16.994;2024-03-23T16:54:15;9.00;;;2.70;;
75628;SDS011;64213;46.452;16.994;2024-03-23T16:57:16;9.75;;;2.83;;
75628;SDS011;64213;46.452;16.994;2024-03-23T17:00:18;8.27;;;2.50;;
75628;SDS011;64213;46.452;16.994;2024-03-23T17:03:24;8.60;;;2.93;;
75628;SDS011;64213;46.452;16.994;2024-03-23T17:06:26;7.78;;;2.78;;
75628;SDS011;64213;46.452;16.994;2024-03-23T17:09:27;8.57;;;3.47;;
75628;SDS011;64213;46.452;16.994;2024-03-23T17:12:28;8.55;;;2.90;;
75628;SDS011;64213;46.452;16.994;2024-03-23T17:15:30;8.63;;;2.90;;
75628;SDS011;64213;46.452;16.994;2024-03-23T17:18:31;7.47;;;2.53;;
75628;SDS011;64213;46.452;16.994;2024-03-23T17:21:36;8.45;;;3.00;;
75628;SDS011;64213;46.452;16.994;2024-03-23T17:24:41;8.55;;;2.83;;
75628;SDS011;64213;46.452;16.994;2024-03-23T17:27:42;9.52;;;3.17;;
75628;SDS011;64213;46.452;16.994;2024-03-23T17:30:44;7.55;;;2.78;;
75628;SDS011;64213;46.452;16.994;2024-03-23T17:33:50;7.70;;;2.97;;
75628;SDS011;64213;46.452;16.994;2024-03-23T17:40:41;9.45;;;3.40;;
75628;SDS011;64213;46.452;16.994;2024-03-23T17:43:44;8.63;;;2.97;;
75628;SDS011;64213;46.452;16.994;2024-03-23T17:46:45;9.27;;;3.53;;
75628;SDS011;64213;46.452;16.994;2024-03-23T17:53:45;10.43;;;1.23;;
75628;SDS011;64213;46.452;16.994;2024-03-23T17:56:46;15.43;;;1.50;;
75628;SDS011;64213;46.452;16.994;2024-03-23T17:59:47;5.53;;;0.68;;
75628;SDS011;64213;46.452;16.994;2024-03-23T18:02:49;7.75;;;0.73;;
75628;SDS011;64213;46.452;16.994;2024-03-23T18:05:51;7.53;;;0.73;;
75628;SDS011;64213;46.452;16.994;2024-03-23T18:08:52;3.90;;;0.50;;
75628;SDS011;64213;46.452;16.994;2024-03-23T18:11:53;2.85;;;0.50;;
75628;SDS011;64213;46.452;16.994;2024-03-23T18:14:55;4.90;;;0.50;;
75628;SDS011;64213;46.452;16.994;2024-03-23T18:17:58;4.53;;;0.52;;
75628;SDS011;64213;46.452;16.994;2024-03-23T18:21:01;3.47;;;0.47;;
75628;SDS011;64213;46.452;16.994;2024-03-23T18:24:03;3.12;;;0.40;;
75628;SDS011;64213;46.452;16.994;2024-03-23T18:27:04;2.58;;;0.50;;
75628;SDS011;64213;46.452;16.994;2024-03-23T18:30:06;2.53;;;0.43;;
75628;SDS011;64213;46.452;16.994;2024-03-23T18:33:08;2.72;;;0.40;;
75628;SDS011;64213;46.452;16.994;2024-03-23T18:36:09;3.80;;;0.40;;
75628;SDS011;64213;46.452;16.994;2024-03-23T18:39:11;3.10;;;0.50;;
75628;SDS011;64213;46.452;16.994;2024-03-23T18:42:13;3.05;;;0.32;;
75628;SDS011;64213;46.452;16.994;2024-03-23T18:45:14;3.03;;;0.40;;
75628;SDS011;64213;46.452;16.994;2024-03-23T18:48:15;2.30;;;0.40;;
75628;SDS011;64213;46.452;16.994;2024-03-23T18:51:17;2.90;;;0.70;;
75628;SDS011;64213;46.452;16.994;2024-03-23T18:54:20;2.15;;;0.20;;
75628;SDS011;64213;46.452;16.994;2024-03-23T18:57:21;2.17;;;0.30;;
75628;SDS011;64213;46.452;16.994;2024-03-23T19:00:22;2.35;;;0.28;;
75628;SDS011;64213;46.452;16.994;2024-03-23T19:03:24;2.70;;;0.30;;
75628;SDS011;64213;46.452;16.994;2024-03-23T19:06:26;1.13;;;0.20;;